Home > Products > Valid Products > TAF

000
FTUS45 KPUB 302320
TAFCOS
TAF
KCOS 302320Z 3100/3124 17007KT 4SM -RA SCT007 OVC040
      TEMPO 3100/3102 2SM -RA BR BKN007 OVC025
     FM310200 14008KT P6SM VCSH SCT015 BKN025
     FM310600 VRB06KT 3SM BR BKN015
     FM311100 15006KT 1SM BR BKN008
     FM311600 16006KT 5SM BR SCT008 BKN025
     FM312000 15009KT P6SM VCTS SCT035CB BKN060=



000
FTUS45 KPUB 302320
TAFPUB
TAF
KPUB 302320Z 3100/3124 10011KT P6SM VCSH SCT020 OVC040
      TEMPO 3100/3102 2SM -RA BR BKN008 OVC030
     FM310200 10006KT P6SM VCSH SCT015 BKN030
     FM310600 10005KT 3SM BR BKN015
     FM311100 15006KT 1SM BR BKN008
     FM311600 16006KT 5SM BR SCT008 BKN025
     FM312000 12011KT P6SM VCTS SCT035CB BKN060=



000
FTUS45 KPUB 302320
TAFALS
TAF
KALS 302320Z 3100/3124 12010KT P6SM VCSH SCT080 BKN150
      TEMPO 3100/3102 -SHRA BKN050
     FM310200 12007KT P6SM SCT060 BKN150
     FM310600 VRB05KT P6SM SCT020
     FM311500 21006KT P6SM SCT200
     FM312000 23011KT P6SM SCT050=



000
FTUS45 KPUB 302043 AAC
TAFPUB
TAF AMD
KPUB 302043Z 3021/3118 14006KT 5SM -RA SCT015 OVC025
      TEMPO 3021/3024 2SM +RA BKN015 OVC025
     FM310200 10006KT P6SM VCSH SCT015 BKN030
     FM310600 10005KT 3SM BR BKN015
     FM311100 15006KT 1SM BR BKN008
     FM311600 16006KT 5SM BR SCT008 BKN025=



000
FTUS45 KPUB 302043 AAC
TAFPUB
TAF AMD
KPUB 302043Z 3021/3118 14006KT 5SM -RA SCT015 OVC025
      TEMPO 3021/3024 2SM +RA BKN015 OVC025
     FM310200 10006KT P6SM VCSH SCT015 BKN030
     FM310600 10005KT 3SM BR BKN015
     FM311100 15006KT 1SM BR BKN008
     FM311600 16006KT 5SM BR SCT008 BKN025=



000
FTUS45 KPUB 302033 AAB
TAFCOS
TAF AMD
KCOS 302033Z 3021/3118 15008KT 4SM -RA BKN007 OVC020
      TEMPO 3021/3024 1SM +RA OVC007
     FM310200 14008KT P6SM VCSH SCT015 BKN025
     FM310600 VRB06KT 3SM BR BKN015
     FM311100 15006KT 1SM BR BKN008
     FM311600 16006KT 5SM BR SCT008 BKN025=



000
FTUS45 KPUB 302033 AAB
TAFCOS
TAF AMD
KCOS 302033Z 3021/3118 15008KT 4SM -RA BKN007 OVC020
      TEMPO 3021/3024 1SM +RA OVC007
     FM310200 14008KT P6SM VCSH SCT015 BKN025
     FM310600 VRB06KT 3SM BR BKN015
     FM311100 15006KT 1SM BR BKN008
     FM311600 16006KT 5SM BR SCT008 BKN025=



000
FTUS45 KPUB 301905 AAB
TAFPUB
TAF AMD
KPUB 301905Z 3019/3118 06006KT P6SM VCSH BKN025 BKN050
      TEMPO 3019/3021 2SM -SHRA
     FM302100 09009KT P6SM VCTS BKN030CB
     FM310200 10006KT P6SM VCSH SCT015 BKN030
     FM310600 10005KT 3SM BR BKN015
     FM311100 15006KT 1SM BR BKN008
     FM311600 16006KT 5SM BR SCT008 BKN025=



000
FTUS45 KPUB 301905 AAB
TAFPUB
TAF AMD
KPUB 301905Z 3019/3118 06006KT P6SM VCSH BKN025 BKN050
      TEMPO 3019/3021 2SM -SHRA
     FM302100 09009KT P6SM VCTS BKN030CB
     FM310200 10006KT P6SM VCSH SCT015 BKN030
     FM310600 10005KT 3SM BR BKN015
     FM311100 15006KT 1SM BR BKN008
     FM311600 16006KT 5SM BR SCT008 BKN025=



000
FTUS45 KPUB 301904 AAA
TAFCOS
TAF AMD
KCOS 301904Z 3019/3118 06007KT P6SM VCSH BKN015 BKN040
      TEMPO 3019/3021 3SM -SHRA
     FM302100 12012KT P6SM VCTS BKN025CB BKN040
     FM310200 14008KT P6SM VCSH SCT015 BKN025
     FM310600 VRB06KT 3SM BR BKN015
     FM311100 15006KT 1SM BR BKN008
     FM311600 16006KT 5SM BR SCT008 BKN025=



000
FTUS45 KPUB 301904 AAA
TAFCOS
TAF AMD
KCOS 301904Z 3019/3118 06007KT P6SM VCSH BKN015 BKN040
      TEMPO 3019/3021 3SM -SHRA
     FM302100 12012KT P6SM VCTS BKN025CB BKN040
     FM310200 14008KT P6SM VCSH SCT015 BKN025
     FM310600 VRB06KT 3SM BR BKN015
     FM311100 15006KT 1SM BR BKN008
     FM311600 16006KT 5SM BR SCT008 BKN025=



000
FTUS45 KPUB 301732
TAFCOS
TAF
KCOS 301732Z 3018/3118 06007KT P6SM VCSH BKN015 BKN040
     FM302100 12012KT P6SM VCTS BKN025CB BKN040
     FM310200 14008KT P6SM VCSH SCT015 BKN025
     FM310600 VRB06KT 3SM BR BKN015
     FM311100 15006KT 1SM BR BKN008
     FM311600 16006KT 5SM BR SCT008 BKN025=



000
FTUS45 KPUB 301732
TAFPUB
TAF
KPUB 301732Z 3018/3118 06006KT P6SM VCSH BKN025 BKN050
     FM302100 09009KT P6SM VCTS BKN030CB
     FM310200 10006KT P6SM VCSH SCT015 BKN030
     FM310600 10005KT 3SM BR BKN015
     FM311100 15006KT 1SM BR BKN008
     FM311600 16006KT 5SM BR SCT008 BKN025=



000
FTUS45 KPUB 301732
TAFALS
TAF
KALS 301732Z 3018/3118 VRB05KT P6SM SCT080
     FM302000 10009KT P6SM SCT060 BKN100
     FM302200 09012KT P6SM VCTS SCT050CB BKN080
     FM310200 12007KT P6SM BKN040=



000
FTUS45 KPUB 301732
TAFALS
TAF
KALS 301732Z 3018/3118 VRB05KT P6SM SCT080
     FM302000 10009KT P6SM SCT060 BKN100
     FM302200 09012KT P6SM VCTS SCT050CB BKN080
     FM310200 12007KT P6SM BKN040=



000
FTUS45 KPUB 301732
TAFPUB
TAF
KPUB 301732Z 3018/3118 06006KT P6SM VCSH BKN025 BKN050
     FM302100 09009KT P6SM VCTS BKN030CB
     FM310200 10006KT P6SM VCSH SCT015 BKN030
     FM310600 10005KT 3SM BR BKN015
     FM311100 15006KT 1SM BR BKN008
     FM311600 16006KT 5SM BR SCT008 BKN025=



000
FTUS45 KPUB 301732
TAFCOS
TAF
KCOS 301732Z 3018/3118 06007KT P6SM VCSH BKN015 BKN040
     FM302100 12012KT P6SM VCTS BKN025CB BKN040
     FM310200 14008KT P6SM VCSH SCT015 BKN025
     FM310600 VRB06KT 3SM BR BKN015
     FM311100 15006KT 1SM BR BKN008
     FM311600 16006KT 5SM BR SCT008 BKN025=



000
FTUS45 KPUB 301333 AAB
TAFCOS
TAF AMD
KCOS 301333Z 3014/3112 03006KT P6SM VCSH SCT015 BKN018
      TEMPO 3014/3017 2SM -RA BR BKN012
     FM301700 06007KT P6SM VCSH SCT020 BKN040
     FM302000 12012KT P6SM -TSRA BKN025CB BKN050
     FM302300 14008KT P6SM SCT015 BKN025
     FM310600 VRB06KT 3SM BR BKN015=



000
FTUS45 KPUB 301333 AAB
TAFCOS
TAF AMD
KCOS 301333Z 3014/3112 03006KT P6SM VCSH SCT015 BKN018
      TEMPO 3014/3017 2SM -RA BR BKN012
     FM301700 06007KT P6SM VCSH SCT020 BKN040
     FM302000 12012KT P6SM -TSRA BKN025CB BKN050
     FM302300 14008KT P6SM SCT015 BKN025
     FM310600 VRB06KT 3SM BR BKN015=



000
FTUS45 KPUB 301218 AAA
TAFCOS
TAF AMD
KCOS 301218Z 3012/3112 03006KT P6SM VCSH SCT015 BKN020
      TEMPO 3012/3015 -SHRA BKN012
     FM301700 06007KT P6SM VCSH SCT020 BKN040
     FM302000 12012KT P6SM -TSRA BKN025CB BKN050
     FM302300 14008KT P6SM SCT015 BKN025
     FM310600 VRB06KT 3SM BR BKN015=



000
FTUS45 KPUB 301218 AAA
TAFCOS
TAF AMD
KCOS 301218Z 3012/3112 03006KT P6SM VCSH SCT015 BKN020
      TEMPO 3012/3015 -SHRA BKN012
     FM301700 06007KT P6SM VCSH SCT020 BKN040
     FM302000 12012KT P6SM -TSRA BKN025CB BKN050
     FM302300 14008KT P6SM SCT015 BKN025
     FM310600 VRB06KT 3SM BR BKN015=



000
FTUS45 KPUB 301127
TAFCOS
TAF
KCOS 301127Z 3012/3112 03006KT P6SM VCSH SCT015 BKN030
      TEMPO 3012/3015 -SHRA BKN020
     FM301700 06007KT P6SM VCSH SCT020 BKN040
     FM302000 12012KT P6SM -TSRA BKN025CB BKN050
     FM302300 14008KT P6SM SCT015 BKN025
     FM310600 VRB06KT 3SM BR BKN015=



000
FTUS45 KPUB 301127
TAFALS
TAF
KALS 301127Z 3012/3112 VRB05KT P6SM BKN080
      TEMPO 3012/3014 2SM BR OVC005
     FM301500 VRB05KT P6SM SCT080
     FM302000 10009KT P6SM SCT060 BKN100
     FM302200 09012KT P6SM VCTS SCT050CB BKN080
     FM310200 12007KT P6SM BKN040=



000
FTUS45 KPUB 301127
TAFPUB
TAF
KPUB 301127Z 3012/3112 06006KT P6SM BKN030
     FM301600 VRB05KT P6SM SCT035 BKN050
     FM302100 09009KT P6SM VCTS BKN030CB
     FM310200 10006KT P6SM VCSH SCT015 BKN030
     FM310600 10005KT 3SM BR BKN015=



000
FTUS45 KPUB 301127
TAFALS
TAF
KALS 301127Z 3012/3112 VRB05KT P6SM BKN080
      TEMPO 3012/3014 2SM BR OVC005
     FM301500 VRB05KT P6SM SCT080
     FM302000 10009KT P6SM SCT060 BKN100
     FM302200 09012KT P6SM VCTS SCT050CB BKN080
     FM310200 12007KT P6SM BKN040=



000
FTUS45 KPUB 301127
TAFCOS
TAF
KCOS 301127Z 3012/3112 03006KT P6SM VCSH SCT015 BKN030
      TEMPO 3012/3015 -SHRA BKN020
     FM301700 06007KT P6SM VCSH SCT020 BKN040
     FM302000 12012KT P6SM -TSRA BKN025CB BKN050
     FM302300 14008KT P6SM SCT015 BKN025
     FM310600 VRB06KT 3SM BR BKN015=



000
FTUS45 KPUB 301127
TAFPUB
TAF
KPUB 301127Z 3012/3112 06006KT P6SM BKN030
     FM301600 VRB05KT P6SM SCT035 BKN050
     FM302100 09009KT P6SM VCTS BKN030CB
     FM310200 10006KT P6SM VCSH SCT015 BKN030
     FM310600 10005KT 3SM BR BKN015=



000
FTUS45 KPUB 301034 AAA
TAFCOS
TAF AMD
KCOS 301034Z 3011/3106 VRB05KT P6SM SCT015 BKN030
      TEMPO 3011/3013 2SM BR OVC008
     FM301500 10007KT P6SM SCT020 BKN050
     FM301800 09012KT P6SM VCTS SCT030CB BKN050
      TEMPO 3020/3024 4SM TSRA BKN025CB OVC050=



000
FTUS45 KPUB 301034 AAA
TAFCOS
TAF AMD
KCOS 301034Z 3011/3106 VRB05KT P6SM SCT015 BKN030
      TEMPO 3011/3013 2SM BR OVC008
     FM301500 10007KT P6SM SCT020 BKN050
     FM301800 09012KT P6SM VCTS SCT030CB BKN050
      TEMPO 3020/3024 4SM TSRA BKN025CB OVC050=



000
FTUS45 KPUB 300916 AAA
TAFPUB
TAF AMD
KPUB 300916Z 3009/3106 06008KT P6SM SCT012 BKN020
      TEMPO 3010/3014 3SM BR OVC012
     FM301500 VRB05KT P6SM SCT025 BKN050
     FM302100 10009KT P6SM VCTS BKN040CB=



000
FTUS45 KPUB 300916 AAA
TAFPUB
TAF AMD
KPUB 300916Z 3009/3106 06008KT P6SM SCT012 BKN020
      TEMPO 3010/3014 3SM BR OVC012
     FM301500 VRB05KT P6SM SCT025 BKN050
     FM302100 10009KT P6SM VCTS BKN040CB=



000
FTUS45 KPUB 300520
TAFCOS
TAF
KCOS 300520Z 3006/3106 05007KT P6SM VCSH SCT012 OVC050
      TEMPO 3006/3007 -SHRA BKN012
     FM300700 VRB05KT P6SM SCT008 OVC015
      TEMPO 3009/3013 2SM BR OVC008
     FM301500 10007KT P6SM SCT020 BKN050
     FM301800 09012KT P6SM VCTS SCT030CB BKN050
      TEMPO 3020/3024 4SM TSRA BKN025CB OVC050=



000
FTUS45 KPUB 300520
TAFALS
TAF
KALS 300520Z 3006/3106 21005KT P6SM SCT100 BKN200
     FM300700 VRB05KT P6SM SCT020
      TEMPO 3010/3014 2SM BR OVC005
     FM301500 VRB05KT P6SM SCT080
     FM302000 10009KT P6SM SCT060 BKN100
     FM302200 09012KT P6SM VCTS SCT050CB BKN080=



000
FTUS45 KPUB 300520
TAFPUB
TAF
KPUB 300520Z 3006/3106 VRB05KT P6SM VCSH SCT012 BKN040 OVC100
      TEMPO 3006/3008 -SHRA BKN025 OVC040
     FM300900 VRB05KT P6SM SCT012 BKN080
      TEMPO 3010/3014 3SM BR OVC012
     FM301500 VRB05KT P6SM SCT025 BKN050
     FM302100 10009KT P6SM VCTS BKN040CB=



000
FTUS45 KPUB 300520
TAFCOS
TAF
KCOS 300520Z 3006/3106 05007KT P6SM VCSH SCT012 OVC050
      TEMPO 3006/3007 -SHRA BKN012
     FM300700 VRB05KT P6SM SCT008 OVC015
      TEMPO 3009/3013 2SM BR OVC008
     FM301500 10007KT P6SM SCT020 BKN050
     FM301800 09012KT P6SM VCTS SCT030CB BKN050
      TEMPO 3020/3024 4SM TSRA BKN025CB OVC050=



000
FTUS45 KPUB 300520
TAFPUB
TAF
KPUB 300520Z 3006/3106 VRB05KT P6SM VCSH SCT012 BKN040 OVC100
      TEMPO 3006/3008 -SHRA BKN025 OVC040
     FM300900 VRB05KT P6SM SCT012 BKN080
      TEMPO 3010/3014 3SM BR OVC012
     FM301500 VRB05KT P6SM SCT025 BKN050
     FM302100 10009KT P6SM VCTS BKN040CB=



000
FTUS45 KPUB 300520
TAFALS
TAF
KALS 300520Z 3006/3106 21005KT P6SM SCT100 BKN200
     FM300700 VRB05KT P6SM SCT020
      TEMPO 3010/3014 2SM BR OVC005
     FM301500 VRB05KT P6SM SCT080
     FM302000 10009KT P6SM SCT060 BKN100
     FM302200 09012KT P6SM VCTS SCT050CB BKN080=



000
FTUS45 KPUB 300425 AAB
TAFPUB
TAF AMD
KPUB 300425Z 3004/3024 VRB07KT P6SM VCSH SCT050 OVC100
      TEMPO 3004/3006 -SHRA BKN050
     FM300700 01007KT P6SM SCT025 BKN080
     FM301000 VRB05KT P6SM SCT050 BKN150
     FM301900 10009KT P6SM VCTS BKN040CB=



000
FTUS45 KPUB 300425 AAB
TAFPUB
TAF AMD
KPUB 300425Z 3004/3024 VRB07KT P6SM VCSH SCT050 OVC100
      TEMPO 3004/3006 -SHRA BKN050
     FM300700 01007KT P6SM SCT025 BKN080
     FM301000 VRB05KT P6SM SCT050 BKN150
     FM301900 10009KT P6SM VCTS BKN040CB=



000
FTUS45 KPUB 300423 AAA
TAFCOS
TAF AMD
KCOS 300423Z 3004/3024 VRB06KT P6SM VCSH SCT020 OVC060
      TEMPO 3004/3006 -SHRA BKN020
     FM300700 VRB05KT P6SM SCT050 BKN150
     FM301700 12007KT P6SM VCTS BKN040CB=



000
FTUS45 KPUB 300423 AAA
TAFCOS
TAF AMD
KCOS 300423Z 3004/3024 VRB06KT P6SM VCSH SCT020 OVC060
      TEMPO 3004/3006 -SHRA BKN020
     FM300700 VRB05KT P6SM SCT050 BKN150
     FM301700 12007KT P6SM VCTS BKN040CB=



000
FTUS45 KPUB 300422 AAA
TAFALS
TAF AMD
KALS 300422Z 3004/3024 21007KT P6SM SCT080 BKN200
     FM300700 VRB05KT P6SM SCT020
      TEMPO 3010/3014 2SM BR OVC005
     FM301500 VRB05KT P6SM SCT080
     FM302100 VRB07KT P6SM VCTS SCT040CB BKN080=



000
FTUS45 KPUB 300422 AAA
TAFALS
TAF AMD
KALS 300422Z 3004/3024 21007KT P6SM SCT080 BKN200
     FM300700 VRB05KT P6SM SCT020
      TEMPO 3010/3014 2SM BR OVC005
     FM301500 VRB05KT P6SM SCT080
     FM302100 VRB07KT P6SM VCTS SCT040CB BKN080=



000
FTUS45 KPUB 300049 AAA
TAFPUB
TAF AMD
KPUB 300049Z 3001/3024 03015KT P6SM VCTS BKN100CB
     FM300200 03012KT P6SM VCTS SCT030CB BKN050
      TEMPO 3003/3006 VRB15G30KT 4SM TSRA BKN030CB
     FM300700 01007KT P6SM VCSH SCT025 BKN040
     FM301000 VRB05KT P6SM SCT050 BKN150
     FM301900 10009KT P6SM VCTS BKN040CB=



000
FTUS45 KPUB 300049 AAA
TAFPUB
TAF AMD
KPUB 300049Z 3001/3024 03015KT P6SM VCTS BKN100CB
     FM300200 03012KT P6SM VCTS SCT030CB BKN050
      TEMPO 3003/3006 VRB15G30KT 4SM TSRA BKN030CB
     FM300700 01007KT P6SM VCSH SCT025 BKN040
     FM301000 VRB05KT P6SM SCT050 BKN150
     FM301900 10009KT P6SM VCTS BKN040CB=



000
FTUS45 KPUB 292320
TAFCOS
TAF
KCOS 292320Z 3000/3024 05012KT P6SM VCTS SCT050CB BKN100
      TEMPO 3002/3005 VRB15G30KT 3SM +TSRA BKN025CB
     FM300500 34008KT P6SM VCSH SCT030 OVC050
     FM300700 VRB05KT P6SM SCT050 BKN150
     FM301700 12007KT P6SM VCTS BKN040CB=



000
FTUS45 KPUB 292320
TAFALS
TAF
KALS 292320Z 3000/3024 VRB07KT P6SM VCTS SCT040CB BKN090
      TEMPO 3000/3002 4SM TSRA BKN035CB
     FM300400 15006KT P6SM SCT080 BKN120
     FM300700 VRB05KT P6SM SCT020
      TEMPO 3010/3014 2SM BR OVC005
     FM301500 VRB05KT P6SM SCT080
     FM302100 VRB07KT P6SM VCTS SCT040CB BKN080=



000
FTUS45 KPUB 292320
TAFPUB
TAF
KPUB 292320Z 3000/3024 19014G24KT P6SM VCTS SCT040CB BKN090
     FM300200 15008KT P6SM VCTS SCT030CB BKN050
      TEMPO 3003/3006 VRB15G30KT 4SM TSRA BKN030CB
     FM300700 01007KT P6SM VCSH SCT025 BKN040
     FM301000 VRB05KT P6SM SCT050 BKN150
     FM301900 10009KT P6SM VCTS BKN040CB=



000
FTUS45 KPUB 292320
TAFALS
TAF
KALS 292320Z 3000/3024 VRB07KT P6SM VCTS SCT040CB BKN090
      TEMPO 3000/3002 4SM TSRA BKN035CB
     FM300400 15006KT P6SM SCT080 BKN120
     FM300700 VRB05KT P6SM SCT020
      TEMPO 3010/3014 2SM BR OVC005
     FM301500 VRB05KT P6SM SCT080
     FM302100 VRB07KT P6SM VCTS SCT040CB BKN080=



000
FTUS45 KPUB 292320
TAFCOS
TAF
KCOS 292320Z 3000/3024 05012KT P6SM VCTS SCT050CB BKN100
      TEMPO 3002/3005 VRB15G30KT 3SM +TSRA BKN025CB
     FM300500 34008KT P6SM VCSH SCT030 OVC050
     FM300700 VRB05KT P6SM SCT050 BKN150
     FM301700 12007KT P6SM VCTS BKN040CB=



000
FTUS45 KPUB 292141 AAB
TAFPUB
TAF AMD
KPUB 292141Z 2922/3018 12008KT P6SM VCTS SCT040CB BKN090
     FM300400 03012KT P6SM -SHRA BKN040
     FM300800 01007KT P6SM VCSH BKN030=



000
FTUS45 KPUB 292141 AAB
TAFPUB
TAF AMD
KPUB 292141Z 2922/3018 12008KT P6SM VCTS SCT040CB BKN090
     FM300400 03012KT P6SM -SHRA BKN040
     FM300800 01007KT P6SM VCSH BKN030=



000
FTUS45 KPUB 292140 AAA
TAFCOS
TAF AMD
KCOS 292140Z 2922/3018 15008KT P6SM VCTS SCT050CB BKN150
      TEMPO 2922/3001 VRB15G30KT 3SM +TSRA BKN030CB
     FM300400 34008KT P6SM VCSH SCT030 OVC050
     FM301700 12007KT P6SM VCTS BKN040CB=



000
FTUS45 KPUB 292140 AAA
TAFCOS
TAF AMD
KCOS 292140Z 2922/3018 15008KT P6SM VCTS SCT050CB BKN150
      TEMPO 2922/3001 VRB15G30KT 3SM +TSRA BKN030CB
     FM300400 34008KT P6SM VCSH SCT030 OVC050
     FM301700 12007KT P6SM VCTS BKN040CB=



000
FTUS45 KPUB 292138 AAA
TAFALS
TAF AMD
KALS 292138Z 2922/3018 27010KT P6SM VCTS SCT040CB BKN080
     FM300400 15006KT P6SM SCT080 BKN120=



000
FTUS45 KPUB 291720
TAFALS
TAF
KALS 291720Z 2918/3018 23007KT P6SM SCT050 BKN120
     FM292100 25011KT 4SM TSRA BKN035CB OVC100
     FM300000 30010KT P6SM VCTS SCT040CB BKN080
     FM300300 15006KT P6SM SCT080 BKN120=



000
FTUS45 KPUB 291720
TAFCOS
TAF
KCOS 291720Z 2918/3018 14008KT P6SM SCT050 BKN120
     FM291900 15008KT P6SM VCTS SCT050CB BKN150
      TEMPO 2921/3001 VRB15G30KT 3SM +TSRA BKN030CB
     FM300400 34008KT P6SM VCSH SCT030 OVC050
     FM301700 12007KT P6SM VCTS BKN040CB=



000
FTUS45 KPUB 291720
TAFPUB
TAF
KPUB 291720Z 2918/3018 12008KT P6SM SCT008 BKN110
     FM292000 12008KT P6SM VCTS SCT040CB BKN090
      TEMPO 2921/3001 VRB15G30KT 3SM +TSRA BKN030CB
     FM300400 03012KT P6SM -SHRA BKN040
     FM300800 01007KT P6SM VCSH BKN030=



000
FTUS45 KPUB 291720
TAFALS
TAF
KALS 291720Z 2918/3018 23007KT P6SM SCT050 BKN120
     FM292100 25011KT 4SM TSRA BKN035CB OVC100
     FM300000 30010KT P6SM VCTS SCT040CB BKN080
     FM300300 15006KT P6SM SCT080 BKN120=



000
FTUS45 KPUB 291720
TAFPUB
TAF
KPUB 291720Z 2918/3018 12008KT P6SM SCT008 BKN110
     FM292000 12008KT P6SM VCTS SCT040CB BKN090
      TEMPO 2921/3001 VRB15G30KT 3SM +TSRA BKN030CB
     FM300400 03012KT P6SM -SHRA BKN040
     FM300800 01007KT P6SM VCSH BKN030=



000
FTUS45 KPUB 291720
TAFCOS
TAF
KCOS 291720Z 2918/3018 14008KT P6SM SCT050 BKN120
     FM291900 15008KT P6SM VCTS SCT050CB BKN150
      TEMPO 2921/3001 VRB15G30KT 3SM +TSRA BKN030CB
     FM300400 34008KT P6SM VCSH SCT030 OVC050
     FM301700 12007KT P6SM VCTS BKN040CB=



000
FTUS45 KPUB 291547 AAC
TAFALS
TAF AMD
KALS 291547Z 2916/3012 VRB06KT P6SM BKN010
     FM291700 23007KT P6SM SCT050 BKN120
     FM292100 25011KT 4SM TSRA BKN035CB OVC100
     FM300000 30010KT P6SM VCSH SCT050 BKN080
     FM300400 15006KT P6SM SCT080 BKN120=



000
FTUS45 KPUB 291502 AAC
TAFPUB
TAF AMD
KPUB 291502Z 2915/3012 12008KT P6SM SCT008 BKN110
     FM292200 14011KT 4SM TSRA BKN040CB BKN080
     FM300100 09008KT P6SM VCTS SCT040CB BKN080
     FM300400 03012KT P6SM -SHRA BKN040
     FM300800 01007KT P6SM VCSH BKN030=



000
FTUS45 KPUB 291502 AAC
TAFPUB
TAF AMD
KPUB 291502Z 2915/3012 12008KT P6SM SCT008 BKN110
     FM292200 14011KT 4SM TSRA BKN040CB BKN080
     FM300100 09008KT P6SM VCTS SCT040CB BKN080
     FM300400 03012KT P6SM -SHRA BKN040
     FM300800 01007KT P6SM VCSH BKN030=



000
FTUS45 KPUB 291409 AAB
TAFALS
TAF AMD
KALS 291409Z 2914/3012 VRB06KT 2SM BR BKN002
     FM291600 23007KT P6SM SCT050 BKN120
     FM292100 25011KT 4SM TSRA BKN035CB OVC100
     FM300000 30010KT P6SM VCSH SCT050 BKN080
     FM300400 15006KT P6SM SCT080 BKN120=



000
FTUS45 KPUB 291409 AAB
TAFALS
TAF AMD
KALS 291409Z 2914/3012 VRB06KT 2SM BR BKN002
     FM291600 23007KT P6SM SCT050 BKN120
     FM292100 25011KT 4SM TSRA BKN035CB OVC100
     FM300000 30010KT P6SM VCSH SCT050 BKN080
     FM300400 15006KT P6SM SCT080 BKN120=



000
FTUS45 KPUB 291346 AAB
TAFPUB
TAF AMD
KPUB 291346Z 2914/3012 VRB05KT P6SM BKN008
     FM291600 12008KT P6SM SCT008 BKN110
     FM292200 14011KT 4SM TSRA BKN040CB BKN080
     FM300100 09008KT P6SM VCTS SCT040CB BKN080
     FM300400 03012KT P6SM -SHRA BKN040
     FM300800 01007KT P6SM VCSH BKN030=



000
FTUS45 KPUB 291346 AAB
TAFPUB
TAF AMD
KPUB 291346Z 2914/3012 VRB05KT P6SM BKN008
     FM291600 12008KT P6SM SCT008 BKN110
     FM292200 14011KT 4SM TSRA BKN040CB BKN080
     FM300100 09008KT P6SM VCTS SCT040CB BKN080
     FM300400 03012KT P6SM -SHRA BKN040
     FM300800 01007KT P6SM VCSH BKN030=



000
FTUS45 KPUB 291227 AAA
TAFALS
TAF AMD
KALS 291227Z 2912/3012 VRB06KT P6SM SCT005 SCT120 SCT200
      TEMPO 2912/2914 1/4SM FG BKN002
     FM291600 23007KT P6SM SCT050 BKN120
     FM292100 25011KT 4SM TSRA BKN035CB OVC100
     FM300000 30010KT P6SM VCSH SCT050 BKN080
     FM300400 15006KT P6SM SCT080 BKN120=



000
FTUS45 KPUB 291227 AAA
TAFALS
TAF AMD
KALS 291227Z 2912/3012 VRB06KT P6SM SCT005 SCT120 SCT200
      TEMPO 2912/2914 1/4SM FG BKN002
     FM291600 23007KT P6SM SCT050 BKN120
     FM292100 25011KT 4SM TSRA BKN035CB OVC100
     FM300000 30010KT P6SM VCSH SCT050 BKN080
     FM300400 15006KT P6SM SCT080 BKN120=



000
FTUS45 KPUB 291139
TAFCOS
TAF
KCOS 291139Z 2912/3012 03005KT P6SM SCT140 SCT200
     FM291600 14008KT P6SM SCT050 SCT200
     FM291900 15008KT P6SM VCTS SCT050CB BKN150
     FM292100 15012KT 3SM TSRA BKN040CB BKN080
     FM300000 02012KT P6SM VCTS SCT030CB BKN060
     FM300300 36012KT P6SM -SHRA BKN030
     FM300700 34008KT P6SM VCSH SCT030 BKN050=



000
FTUS45 KPUB 291139
TAFALS
TAF
KALS 291139Z 2912/3012 VRB06KT P6SM SCT005 SCT120 SCT200
      TEMPO 2912/2914 4SM BR BKN005
     FM291600 23007KT P6SM SCT050 BKN120
     FM292100 25011KT 4SM TSRA BKN035CB OVC100
     FM300000 30010KT P6SM VCSH SCT050 BKN080
     FM300400 15006KT P6SM SCT080 BKN120=



000
FTUS45 KPUB 291139
TAFPUB
TAF
KPUB 291139Z 2912/3012 VRB05KT P6SM SCT120 BKN250
     FM291600 12008KT P6SM SCT200
     FM292200 14011KT 4SM TSRA BKN040CB BKN080
     FM300100 09008KT P6SM VCTS SCT040CB BKN080
     FM300400 03012KT P6SM -SHRA BKN040
     FM300800 01007KT P6SM VCSH BKN030=



000
FTUS45 KPUB 291139
TAFCOS
TAF
KCOS 291139Z 2912/3012 03005KT P6SM SCT140 SCT200
     FM291600 14008KT P6SM SCT050 SCT200
     FM291900 15008KT P6SM VCTS SCT050CB BKN150
     FM292100 15012KT 3SM TSRA BKN040CB BKN080
     FM300000 02012KT P6SM VCTS SCT030CB BKN060
     FM300300 36012KT P6SM -SHRA BKN030
     FM300700 34008KT P6SM VCSH SCT030 BKN050=



000
FTUS45 KPUB 291139
TAFPUB
TAF
KPUB 291139Z 2912/3012 VRB05KT P6SM SCT120 BKN250
     FM291600 12008KT P6SM SCT200
     FM292200 14011KT 4SM TSRA BKN040CB BKN080
     FM300100 09008KT P6SM VCTS SCT040CB BKN080
     FM300400 03012KT P6SM -SHRA BKN040
     FM300800 01007KT P6SM VCSH BKN030=



000
FTUS45 KPUB 291139
TAFALS
TAF
KALS 291139Z 2912/3012 VRB06KT P6SM SCT005 SCT120 SCT200
      TEMPO 2912/2914 4SM BR BKN005
     FM291600 23007KT P6SM SCT050 BKN120
     FM292100 25011KT 4SM TSRA BKN035CB OVC100
     FM300000 30010KT P6SM VCSH SCT050 BKN080
     FM300400 15006KT P6SM SCT080 BKN120=



000
FTUS45 KPUB 290626 AAA
TAFALS
TAF AMD
KALS 290626Z 2906/3006 VRB06KT P6SM BKN005 BKN070
      TEMPO 2910/2914 P6SM SCT005 BKN070
     FM291400 VRB06KT P6SM SCT012 BKN070
     FM291600 23007KT P6SM SCT050 BKN120
     FM292100 25011KT P6SM VCTS SCT045CB BKN100
      TEMPO 2922/3001 4SM TSRA BKN035CB=



000
FTUS45 KPUB 290626 AAA
TAFALS
TAF AMD
KALS 290626Z 2906/3006 VRB06KT P6SM BKN005 BKN070
      TEMPO 2910/2914 P6SM SCT005 BKN070
     FM291400 VRB06KT P6SM SCT012 BKN070
     FM291600 23007KT P6SM SCT050 BKN120
     FM292100 25011KT P6SM VCTS SCT045CB BKN100
      TEMPO 2922/3001 4SM TSRA BKN035CB=



000
FTUS45 KPUB 290520
TAFPUB
TAF
KPUB 290520Z 2906/3006 VRB05KT P6SM SCT080 BKN200
     FM291000 VRB05KT P6SM SCT120 BKN250
     FM291600 12008KT P6SM SCT200
     FM292100 14011KT P6SM VCTS SCT040CB BKN080=



000
FTUS45 KPUB 290520
TAFCOS
TAF
KCOS 290520Z 2906/3006 VRB05KT P6SM SCT050 BKN200
     FM291100 VRB05KT P6SM SCT040 BKN150
     FM291600 14008KT P6SM SCT050 BKN200
     FM292000 15010KT P6SM VCTS SCT040CB BKN080=



000
FTUS45 KPUB 290520
TAFPUB
TAF
KPUB 290520Z 2906/3006 VRB05KT P6SM SCT080 BKN200
     FM291000 VRB05KT P6SM SCT120 BKN250
     FM291600 12008KT P6SM SCT200
     FM292100 14011KT P6SM VCTS SCT040CB BKN080=



000
FTUS45 KPUB 290520
TAFALS
TAF
KALS 290520Z 2906/3006 VRB06KT P6SM BKN050 OVC100
     FM291000 VRB05KT P6SM SKC
      TEMPO 2910/2913 SCT020
     FM291600 23007KT P6SM SCT050 BKN120
     FM292100 25011KT P6SM VCTS SCT045CB BKN100
      TEMPO 2922/3001 4SM TSRA BKN035CB=



000
FTUS45 KPUB 290520
TAFALS
TAF
KALS 290520Z 2906/3006 VRB06KT P6SM BKN050 OVC100
     FM291000 VRB05KT P6SM SKC
      TEMPO 2910/2913 SCT020
     FM291600 23007KT P6SM SCT050 BKN120
     FM292100 25011KT P6SM VCTS SCT045CB BKN100
      TEMPO 2922/3001 4SM TSRA BKN035CB=



000
FTUS45 KPUB 290520
TAFCOS
TAF
KCOS 290520Z 2906/3006 VRB05KT P6SM SCT050 BKN200
     FM291100 VRB05KT P6SM SCT040 BKN150
     FM291600 14008KT P6SM SCT050 BKN200
     FM292000 15010KT P6SM VCTS SCT040CB BKN080=



000
FTUS45 KPUB 290136 AAA
TAFALS
TAF AMD
KALS 290136Z 2902/2924 18010KT P6SM VCTS SCT040CB BKN060
     FM290400 VRB06KT P6SM SCT060 BKN200
     FM290600 VRB06KT P6SM SCT030 BKN080
     FM291000 VRB05KT P6SM SKC
      TEMPO 2910/2914 4SM BR SCT020
     FM291600 23007KT P6SM SCT040 BKN080
     FM292100 25010KT P6SM VCTS SCT045CB BKN100=



000
FTUS45 KPUB 290136 AAA
TAFALS
TAF AMD
KALS 290136Z 2902/2924 18010KT P6SM VCTS SCT040CB BKN060
     FM290400 VRB06KT P6SM SCT060 BKN200
     FM290600 VRB06KT P6SM SCT030 BKN080
     FM291000 VRB05KT P6SM SKC
      TEMPO 2910/2914 4SM BR SCT020
     FM291600 23007KT P6SM SCT040 BKN080
     FM292100 25010KT P6SM VCTS SCT045CB BKN100=



000
FTUS45 KPUB 290133 AAB
TAFPUB
TAF AMD
KPUB 290133Z 2902/2924 06007KT P6SM VCTS SCT040CB BKN150
     FM290400 VRB06KT P6SM SCT050 BKN100
     FM291000 VRB05KT P6SM SCT030 BKN150
     FM291600 12008KT P6SM SCT200
     FM292100 15010KT P6SM VCTS SCT040CB BKN080=



000
FTUS45 KPUB 290133 AAB
TAFPUB
TAF AMD
KPUB 290133Z 2902/2924 06007KT P6SM VCTS SCT040CB BKN150
     FM290400 VRB06KT P6SM SCT050 BKN100
     FM291000 VRB05KT P6SM SCT030 BKN150
     FM291600 12008KT P6SM SCT200
     FM292100 15010KT P6SM VCTS SCT040CB BKN080=



000
FTUS45 KPUB 290132 AAA
TAFCOS
TAF AMD
KCOS 290132Z 2902/2924 16007KT P6SM SCT040 OVC200
     FM290400 15007KT P6SM SCT050 BKN200
     FM291100 VRB05KT P6SM SCT025 BKN060
      TEMPO 2911/2915 BKN025
     FM291600 14008KT P6SM SCT050
     FM292000 15010KT P6SM VCTS SCT040CB BKN080=



000
FTUS45 KPUB 290132 AAA
TAFCOS
TAF AMD
KCOS 290132Z 2902/2924 16007KT P6SM SCT040 OVC200
     FM290400 15007KT P6SM SCT050 BKN200
     FM291100 VRB05KT P6SM SCT025 BKN060
      TEMPO 2911/2915 BKN025
     FM291600 14008KT P6SM SCT050
     FM292000 15010KT P6SM VCTS SCT040CB BKN080=



000
FTUS45 KPUB 282320
TAFPUB
TAF
KPUB 282320Z 2900/2924 06007KT P6SM VCTS SCT040CB BKN150
      TEMPO 2900/2903 4SM TSRA BKN025CB
     FM290400 VRB06KT P6SM SCT050 BKN100
     FM291000 VRB05KT P6SM SCT030 BKN150
     FM291600 12008KT P6SM SCT200
     FM292100 15010KT P6SM SCT040CB BKN080=



000
FTUS45 KPUB 282320
TAFALS
TAF
KALS 282320Z 2900/2924 20010KT P6SM VCTS SCT040CB BKN060
      TEMPO 2900/2904 4SM TSRA BKN030CB
     FM290600 VRB06KT P6SM SCT030 BKN080
     FM291100 VRB05KT P6SM SKC
      TEMPO 2910/2914 4SM BR SCT020
     FM291600 23007KT P6SM SCT040 BKN080
     FM292100 25010KT P6SM SCT045CB BKN100=



000
FTUS45 KPUB 282320
TAFCOS
TAF
KCOS 282320Z 2900/2924 16007KT P6SM VCTS SCT040CB BKN150
      TEMPO 2900/2903 4SM TSRA BKN025CB
     FM290300 14008KT P6SM SCT050 BKN120
     FM291100 VRB05KT P6SM SCT025 BKN060
      TEMPO 2911/2915 BKN025
     FM291600 14008KT P6SM SCT050
     FM292000 15010KT P6SM SCT040CB BKN080=



000
FTUS45 KPUB 282320
TAFPUB
TAF
KPUB 282320Z 2900/2924 06007KT P6SM VCTS SCT040CB BKN150
      TEMPO 2900/2903 4SM TSRA BKN025CB
     FM290400 VRB06KT P6SM SCT050 BKN100
     FM291000 VRB05KT P6SM SCT030 BKN150
     FM291600 12008KT P6SM SCT200
     FM292100 15010KT P6SM SCT040CB BKN080=



000
FTUS45 KPUB 282320
TAFALS
TAF
KALS 282320Z 2900/2924 20010KT P6SM VCTS SCT040CB BKN060
      TEMPO 2900/2904 4SM TSRA BKN030CB
     FM290600 VRB06KT P6SM SCT030 BKN080
     FM291100 VRB05KT P6SM SKC
      TEMPO 2910/2914 4SM BR SCT020
     FM291600 23007KT P6SM SCT040 BKN080
     FM292100 25010KT P6SM SCT045CB BKN100=



000
FTUS45 KPUB 282320
TAFCOS
TAF
KCOS 282320Z 2900/2924 16007KT P6SM VCTS SCT040CB BKN150
      TEMPO 2900/2903 4SM TSRA BKN025CB
     FM290300 14008KT P6SM SCT050 BKN120
     FM291100 VRB05KT P6SM SCT025 BKN060
      TEMPO 2911/2915 BKN025
     FM291600 14008KT P6SM SCT050
     FM292000 15010KT P6SM SCT040CB BKN080=



000
FTUS45 KPUB 282113 AAA
TAFCOS
TAF AMD
KCOS 282113Z 2821/2918 16009KT P6SM BKN025 OVC050
     FM282300 16009KT P6SM VCTS SCT025CB OVC050
      TEMPO 2823/2902 4SM TSRA BKN025CB
     FM290300 14008KT P6SM SCT050 BKN120
     FM291100 VRB05KT P6SM SCT030 BKN130=



000
FTUS45 KPUB 282113 AAA
TAFCOS
TAF AMD
KCOS 282113Z 2821/2918 16009KT P6SM BKN025 OVC050
     FM282300 16009KT P6SM VCTS SCT025CB OVC050
      TEMPO 2823/2902 4SM TSRA BKN025CB
     FM290300 14008KT P6SM SCT050 BKN120
     FM291100 VRB05KT P6SM SCT030 BKN130=



000
FTUS45 KPUB 281749 CCA
TAFPUB
TAF COR
KPUB 281749Z 2818/2918 11011KT P6SM SCT025 SCT120
      TEMPO 2818/2819 BKN025
     FM282200 12012KT P6SM VCTS SCT060CB BKN120
     FM290400 VRB06KT P6SM BKN100
     FM291000 VRB05KT P6SM SCT030 BKN150=



000
FTUS45 KPUB 281749 CCA
TAFPUB
TAF COR
KPUB 281749Z 2818/2918 11011KT P6SM SCT025 SCT120
      TEMPO 2818/2819 BKN025
     FM282200 12012KT P6SM VCTS SCT060CB BKN120
     FM290400 VRB06KT P6SM BKN100
     FM291000 VRB05KT P6SM SCT030 BKN150=



000
FTUS45 KPUB 281736
TAFALS
TAF
KALS 281736Z 2818/2918 VRB06KT P6SM VCSH BKN100
     FM282000 19008KT P6SM VCTS SCT050CB BKN100
      TEMPO 2820/2824 3SM -TSRA BKN040CB
     FM290000 16010KT P6SM VCTS SCT040CB BKN080
      TEMPO 2900/2904 3SM TSRA BKN030CB
     FM290600 VRB06KT P6SM SCT030 BKN080=



000
FTUS45 KPUB 281736
TAFCOS
TAF
KCOS 281736Z 2818/2918 16008KT P6SM BKN014
      TEMPO 2819/2821 SCT014 BKN120
     FM282100 16009KT P6SM VCTS SCT050CB BKN120
     FM290300 14008KT P6SM SCT050 BKN120
     FM291100 VRB05KT P6SM SCT030 BKN130=



000
FTUS45 KPUB 281736
TAFPUB
TAF
KPUB 281736Z 2818/2918 12011KT P6SM BKN025
     FM281900 12012KT P6SM SCT030 SCT120
     FM282200 12012KT P6SM VCTS SCT060CB BKN120
     FM290400 VRB06KT P6SM BKN100
     FM291000 VRB05KT P6SM SCT030 BKN150=



000
FTUS45 KPUB 281736
TAFALS
TAF
KALS 281736Z 2818/2918 VRB06KT P6SM VCSH BKN100
     FM282000 19008KT P6SM VCTS SCT050CB BKN100
      TEMPO 2820/2824 3SM -TSRA BKN040CB
     FM290000 16010KT P6SM VCTS SCT040CB BKN080
      TEMPO 2900/2904 3SM TSRA BKN030CB
     FM290600 VRB06KT P6SM SCT030 BKN080=



000
FTUS45 KPUB 281736
TAFCOS
TAF
KCOS 281736Z 2818/2918 16008KT P6SM BKN014
      TEMPO 2819/2821 SCT014 BKN120
     FM282100 16009KT P6SM VCTS SCT050CB BKN120
     FM290300 14008KT P6SM SCT050 BKN120
     FM291100 VRB05KT P6SM SCT030 BKN130=



000
FTUS45 KPUB 281736
TAFPUB
TAF
KPUB 281736Z 2818/2918 12011KT P6SM BKN025
     FM281900 12012KT P6SM SCT030 SCT120
     FM282200 12012KT P6SM VCTS SCT060CB BKN120
     FM290400 VRB06KT P6SM BKN100
     FM291000 VRB05KT P6SM SCT030 BKN150=



000
FTUS45 KPUB 281539 AAC
TAFCOS
TAF AMD
KCOS 281539Z 2816/2912 VRB05KT P6SM SCT013 BKN050
      TEMPO 2816/2818 BKN013
     FM281900 17008KT P6SM SCT060 SCT140
     FM282000 16011KT P6SM VCTS SCT060CB BKN120
      TEMPO 2821/2901 3SM -TSRA BKN040CB
     FM290300 03006KT P6SM SCT080 BKN120=



000
FTUS45 KPUB 281539 AAC
TAFCOS
TAF AMD
KCOS 281539Z 2816/2912 VRB05KT P6SM SCT013 BKN050
      TEMPO 2816/2818 BKN013
     FM281900 17008KT P6SM SCT060 SCT140
     FM282000 16011KT P6SM VCTS SCT060CB BKN120
      TEMPO 2821/2901 3SM -TSRA BKN040CB
     FM290300 03006KT P6SM SCT080 BKN120=



000
FTUS45 KPUB 281538 AAD
TAFPUB
TAF AMD
KPUB 281538Z 2816/2912 08007KT P6SM BKN013
     FM281800 08007KT P6SM SCT020 SCT100
     FM282100 13010KT P6SM VCTS SCT060CB BKN120
      TEMPO 2822/2902 3SM -TSRA BKN040CB
     FM290300 09006KT P6SM SCT060 BKN120=



000
FTUS45 KPUB 281538 AAD
TAFPUB
TAF AMD
KPUB 281538Z 2816/2912 08007KT P6SM BKN013
     FM281800 08007KT P6SM SCT020 SCT100
     FM282100 13010KT P6SM VCTS SCT060CB BKN120
      TEMPO 2822/2902 3SM -TSRA BKN040CB
     FM290300 09006KT P6SM SCT060 BKN120=



000
FTUS45 KPUB 281506 AAC
TAFPUB
TAF AMD
KPUB 281506Z 2815/2912 VRB05KT P6SM BKN009
     FM281600 VRB05KT P6SM SCT009 SCT080
      TEMPO 2816/2817 BKN009
     FM282100 13010KT P6SM VCTS SCT060CB BKN120
      TEMPO 2822/2902 3SM -TSRA BKN040CB
     FM290300 09006KT P6SM SCT060 BKN120=



000
FTUS45 KPUB 281506 AAC
TAFPUB
TAF AMD
KPUB 281506Z 2815/2912 VRB05KT P6SM BKN009
     FM281600 VRB05KT P6SM SCT009 SCT080
      TEMPO 2816/2817 BKN009
     FM282100 13010KT P6SM VCTS SCT060CB BKN120
      TEMPO 2822/2902 3SM -TSRA BKN040CB
     FM290300 09006KT P6SM SCT060 BKN120=



000
FTUS45 KPUB 281503 AAB
TAFCOS
TAF AMD
KCOS 281503Z 2815/2912 VRB05KT P6SM SCT008 BKN080
     FM281900 17008KT P6SM SCT060 SCT140
     FM282000 16011KT P6SM VCTS SCT060CB BKN120
      TEMPO 2821/2901 3SM -TSRA BKN040CB
     FM290300 03006KT P6SM SCT080 BKN120=



000
FTUS45 KPUB 281503 AAB
TAFCOS
TAF AMD
KCOS 281503Z 2815/2912 VRB05KT P6SM SCT008 BKN080
     FM281900 17008KT P6SM SCT060 SCT140
     FM282000 16011KT P6SM VCTS SCT060CB BKN120
      TEMPO 2821/2901 3SM -TSRA BKN040CB
     FM290300 03006KT P6SM SCT080 BKN120=



000
FTUS45 KPUB 281202 AAA
TAFCOS
TAF AMD
KCOS 281202Z 2812/2912 08006KT P6SM BKN006
     FM281600 12007KT P6SM SCT030 BKN140
     FM281900 17008KT P6SM SCT060 SCT140
     FM282000 16011KT P6SM VCTS SCT060CB BKN120
      TEMPO 2821/2901 3SM -TSRA BKN040CB
     FM290300 03006KT P6SM SCT080 BKN120=



000
FTUS45 KPUB 281202 AAA
TAFCOS
TAF AMD
KCOS 281202Z 2812/2912 08006KT P6SM BKN006
     FM281600 12007KT P6SM SCT030 BKN140
     FM281900 17008KT P6SM SCT060 SCT140
     FM282000 16011KT P6SM VCTS SCT060CB BKN120
      TEMPO 2821/2901 3SM -TSRA BKN040CB
     FM290300 03006KT P6SM SCT080 BKN120=



000
FTUS45 KPUB 281139
TAFCOS
TAF
KCOS 281139Z 2812/2912 08006KT P6SM FEW008 SCT030 SCT140
     FM281900 17008KT P6SM SCT060 SCT140
     FM282000 16011KT P6SM VCTS SCT060CB BKN120
      TEMPO 2821/2901 3SM -TSRA BKN040CB
     FM290300 03006KT P6SM SCT080 BKN120=



000
FTUS45 KPUB 281139
TAFPUB
TAF
KPUB 281139Z 2812/2912 VRB06KT P6SM SCT025 SCT110 BKN140
     FM281600 12007KT P6SM SCT110 SCT140
     FM282100 13010KT P6SM VCTS SCT060CB BKN120
      TEMPO 2822/2902 3SM -TSRA BKN040CB
     FM290300 09006KT P6SM SCT060 BKN120=



000
FTUS45 KPUB 281139
TAFALS
TAF
KALS 281139Z 2812/2912 VRB06KT P6SM SCT050 BKN100
     FM281800 18008KT P6SM VCTS SCT050CB BKN120
      TEMPO 2820/2824 3SM -TSRA BKN040CB
     FM290100 20008KT P6SM SCT080 BKN120=



000
FTUS45 KPUB 281139
TAFCOS
TAF
KCOS 281139Z 2812/2912 08006KT P6SM FEW008 SCT030 SCT140
     FM281900 17008KT P6SM SCT060 SCT140
     FM282000 16011KT P6SM VCTS SCT060CB BKN120
      TEMPO 2821/2901 3SM -TSRA BKN040CB
     FM290300 03006KT P6SM SCT080 BKN120=



000
FTUS45 KPUB 281139
TAFPUB
TAF
KPUB 281139Z 2812/2912 VRB06KT P6SM SCT025 SCT110 BKN140
     FM281600 12007KT P6SM SCT110 SCT140
     FM282100 13010KT P6SM VCTS SCT060CB BKN120
      TEMPO 2822/2902 3SM -TSRA BKN040CB
     FM290300 09006KT P6SM SCT060 BKN120=



000
FTUS45 KPUB 281139
TAFALS
TAF
KALS 281139Z 2812/2912 VRB06KT P6SM SCT050 BKN100
     FM281800 18008KT P6SM VCTS SCT050CB BKN120
      TEMPO 2820/2824 3SM -TSRA BKN040CB
     FM290100 20008KT P6SM SCT080 BKN120=



000
FTUS45 KPUB 280647 AAA
TAFPUB
TAF AMD
KPUB 280647Z 2807/2906 28006KT P6SM -SHRA SCT020 BKN060 OVC120
     FM281000 VRB06KT P6SM SCT015 BKN120
     FM281800 13010KT P6SM VCTS SCT060CB BKN120=



000
FTUS45 KPUB 280647 AAA
TAFPUB
TAF AMD
KPUB 280647Z 2807/2906 28006KT P6SM -SHRA SCT020 BKN060 OVC120
     FM281000 VRB06KT P6SM SCT015 BKN120
     FM281800 13010KT P6SM VCTS SCT060CB BKN120=



000
FTUS45 KPUB 280531
TAFPUB
TAF
KPUB 280531Z 2806/2906 01012KT P6SM -SHRA SCT030 BKN060 OVC120
      TEMPO 2806/2808 5SM -SHRA BR BKN030
     FM281000 VRB06KT P6SM SCT020 BKN120
     FM281800 13010KT P6SM VCTS SCT060CB BKN120=



000
FTUS45 KPUB 280531
TAFALS
TAF
KALS 280531Z 2806/2906 VRB06KT P6SM SCT050 BKN100
     FM281800 16008KT P6SM VCTS SCT060CB BKN120=



000
FTUS45 KPUB 280531
TAFCOS
TAF
KCOS 280531Z 2806/2906 13007KT P6SM -SHRA SCT020 SCT050 OVC090
      TEMPO 2806/2810 5SM BR BKN020
     FM281000 VRB06KT P6SM SCT015 BKN100
     FM281800 16010KT P6SM VCTS SCT060CB BKN120=



000
FTUS45 KPUB 280531
TAFCOS
TAF
KCOS 280531Z 2806/2906 13007KT P6SM -SHRA SCT020 SCT050 OVC090
      TEMPO 2806/2810 5SM BR BKN020
     FM281000 VRB06KT P6SM SCT015 BKN100
     FM281800 16010KT P6SM VCTS SCT060CB BKN120=



000
FTUS45 KPUB 280531
TAFPUB
TAF
KPUB 280531Z 2806/2906 01012KT P6SM -SHRA SCT030 BKN060 OVC120
      TEMPO 2806/2808 5SM -SHRA BR BKN030
     FM281000 VRB06KT P6SM SCT020 BKN120
     FM281800 13010KT P6SM VCTS SCT060CB BKN120=



000
FTUS45 KPUB 280531
TAFALS
TAF
KALS 280531Z 2806/2906 VRB06KT P6SM SCT050 BKN100
     FM281800 16008KT P6SM VCTS SCT060CB BKN120=



000
FTUS45 KPUB 280427 AAC
TAFPUB
TAF AMD
KPUB 280427Z 2804/2824 13008KT P6SM VCTS SCT030 BKN080CB OVC120
      TEMPO 2804/2806 VRB20G30KT 5SM TSRA BKN030CB
     FM280800 VRB06KT P6SM SCT020 BKN120
     FM281800 13010KT P6SM VCTS SCT090CB BKN150=



000
FTUS45 KPUB 280427 AAC
TAFPUB
TAF AMD
KPUB 280427Z 2804/2824 13008KT P6SM VCTS SCT030 BKN080CB OVC120
      TEMPO 2804/2806 VRB20G30KT 5SM TSRA BKN030CB
     FM280800 VRB06KT P6SM SCT020 BKN120
     FM281800 13010KT P6SM VCTS SCT090CB BKN150=



000
FTUS45 KPUB 280422 AAB
TAFCOS
TAF AMD
KCOS 280422Z 2804/2824 12008KT P6SM -TSRA SCT010 SCT030CB OVC060
      TEMPO 2804/2806 5SM -SHRA BR BKN006
     FM280800 VRB06KT P6SM SCT010 BKN120
     FM281800 16010KT P6SM VCTS SCT080CB BKN140=



000
FTUS45 KPUB 280422 AAB
TAFCOS
TAF AMD
KCOS 280422Z 2804/2824 12008KT P6SM -TSRA SCT010 SCT030CB OVC060
      TEMPO 2804/2806 5SM -SHRA BR BKN006
     FM280800 VRB06KT P6SM SCT010 BKN120
     FM281800 16010KT P6SM VCTS SCT080CB BKN140=



000
FTUS45 KPUB 280258 AAA
TAFCOS
TAF AMD
KCOS 280258Z 2803/2824 08008KT P6SM -TSRA SCT030CB BKN060
      TEMPO 2803/2804 VRB20G30KT 3SM TSRA SCT010 OVC030CB
     FM280500 13006KT P6SM VCSH SCT050 BKN090
     FM280800 VRB06KT P6SM FEW040 SCT090 BKN200
     FM281800 16010KT P6SM VCTS SCT080CB BKN140=



000
FTUS45 KPUB 280258 AAA
TAFCOS
TAF AMD
KCOS 280258Z 2803/2824 08008KT P6SM -TSRA SCT030CB BKN060
      TEMPO 2803/2804 VRB20G30KT 3SM TSRA SCT010 OVC030CB
     FM280500 13006KT P6SM VCSH SCT050 BKN090
     FM280800 VRB06KT P6SM FEW040 SCT090 BKN200
     FM281800 16010KT P6SM VCTS SCT080CB BKN140=



000
FTUS45 KPUB 272341
TAFPUB
TAF
KPUB 272341Z 2800/2824 13008KT P6SM VCTS SCT080CB BKN150
      TEMPO 2801/2803 VRB20G30KT 3SM TSRA SCT015 OVC035CB
     FM280600 VRB06KT P6SM FEW050 SCT100 BKN200
     FM281800 13010KT P6SM VCTS SCT090CB BKN150=



000
FTUS45 KPUB 272341
TAFCOS
TAF
KCOS 272341Z 2800/2824 17008KT P6SM VCTS SCT070CB BKN140
      TEMPO 2801/2803 VRB20G30KT 3SM TSRA SCT010 OVC030CB
     FM280400 13006KT P6SM VCSH SCT050 BKN090
     FM280800 VRB06KT P6SM FEW040 SCT090 BKN200
     FM281800 16010KT P6SM VCTS SCT080CB BKN140=



000
FTUS45 KPUB 272341
TAFALS
TAF
KALS 272341Z 2800/2824 02008KT P6SM VCTS SCT060CB BKN120
     FM280400 VRB06KT P6SM SCT120 BKN200
     FM281800 16008KT P6SM VCTS SCT080CB BKN140=



000
FTUS45 KPUB 272341
TAFCOS
TAF
KCOS 272341Z 2800/2824 17008KT P6SM VCTS SCT070CB BKN140
      TEMPO 2801/2803 VRB20G30KT 3SM TSRA SCT010 OVC030CB
     FM280400 13006KT P6SM VCSH SCT050 BKN090
     FM280800 VRB06KT P6SM FEW040 SCT090 BKN200
     FM281800 16010KT P6SM VCTS SCT080CB BKN140=



000
FTUS45 KPUB 272341
TAFPUB
TAF
KPUB 272341Z 2800/2824 13008KT P6SM VCTS SCT080CB BKN150
      TEMPO 2801/2803 VRB20G30KT 3SM TSRA SCT015 OVC035CB
     FM280600 VRB06KT P6SM FEW050 SCT100 BKN200
     FM281800 13010KT P6SM VCTS SCT090CB BKN150=



000
FTUS45 KPUB 272341
TAFALS
TAF
KALS 272341Z 2800/2824 02008KT P6SM VCTS SCT060CB BKN120
     FM280400 VRB06KT P6SM SCT120 BKN200
     FM281800 16008KT P6SM VCTS SCT080CB BKN140=



    US Dept of Commerce
    National Oceanic and Atmospheric Administration
    National Weather Service
    1325 East West Highway
    Silver Spring, MD 20910
    Page Author: NWS Internet Services Team
Disclaimer
Information Quality
Credits
Glossary
Privacy Policy
Freedom of Information Act (FOIA)
About Us
Career Opportunities